createdAt,value
2023-05-14T00:00:01.514Z,0.00
2023-05-14T00:01:01.496Z,0.00
2023-05-14T00:02:01.665Z,0.00
2023-05-14T00:03:01.493Z,0.00
2023-05-14T00:04:01.472Z,0.00
2023-05-14T00:05:01.403Z,0.00
2023-05-14T00:06:01.411Z,0.00
2023-05-14T00:07:01.429Z,0.00
2023-05-14T00:08:01.383Z,0.00
2023-05-14T00:09:01.412Z,0.00
2023-05-14T00:10:01.347Z,0.00
2023-05-14T00:11:01.337Z,0.00
2023-05-14T00:12:01.333Z,0.00
2023-05-14T00:13:01.358Z,0.00
2023-05-14T00:14:01.312Z,0.00
2023-05-14T00:15:01.589Z,0.00
2023-05-14T00:16:01.305Z,0.00
2023-05-14T00:17:01.343Z,0.00
2023-05-14T00:18:01.321Z,0.00
2023-05-14T00:19:01.339Z,0.00
2023-05-14T00:20:01.282Z,0.00
2023-05-14T00:21:01.260Z,0.00
2023-05-14T00:22:01.224Z,0.00
2023-05-14T00:23:01.269Z,0.00
2023-05-14T00:24:01.229Z,0.00
2023-05-14T00:25:01.277Z,0.00
2023-05-14T00:26:01.188Z,0.00
2023-05-14T00:27:01.203Z,0.00
2023-05-14T00:28:01.196Z,0.00
2023-05-14T00:29:01.198Z,0.00
2023-05-14T00:30:01.403Z,0.00
2023-05-14T00:31:01.157Z,0.00
2023-05-14T00:32:01.161Z,0.00
2023-05-14T00:33:01.278Z,0.00
2023-05-14T00:34:01.093Z,0.00
2023-05-14T00:35:01.106Z,0.00
2023-05-14T00:36:01.092Z,0.00
2023-05-14T00:37:01.062Z,0.00
2023-05-14T00:38:01.073Z,0.00
2023-05-14T00:39:01.073Z,0.00
2023-05-14T00:40:01.074Z,0.00
2023-05-14T00:41:01.699Z,0.00
2023-05-14T00:42:01.049Z,0.00
2023-05-14T00:43:01.086Z,0.00
2023-05-14T00:44:01.017Z,0.00
2023-05-14T00:45:01.018Z,0.00
2023-05-14T00:46:01.007Z,0.00
2023-05-14T00:47:01.088Z,0.00
2023-05-14T00:48:00.993Z,0.00
2023-05-14T00:49:01.070Z,0.00
2023-05-14T00:50:00.926Z,0.00
2023-05-14T00:51:00.952Z,0.00
2023-05-14T00:52:01.201Z,0.00
2023-05-14T00:53:00.950Z,0.00
2023-05-14T00:54:00.909Z,0.00
2023-05-14T00:55:00.890Z,0.00
2023-05-14T00:56:00.869Z,0.00
2023-05-14T00:57:00.902Z,0.00
2023-05-14T00:58:00.891Z,0.00
2023-05-14T00:59:00.890Z,0.00
2023-05-14T01:00:00.929Z,0.00
2023-05-14T01:01:00.847Z,0.00
2023-05-14T01:02:00.840Z,0.00
2023-05-14T01:03:00.882Z,0.00
2023-05-14T01:04:00.916Z,0.00
2023-05-14T01:05:00.833Z,0.00
2023-05-14T01:06:00.802Z,0.00
2023-05-14T01:07:00.749Z,0.00
2023-05-14T01:08:00.773Z,0.00
2023-05-14T01:09:00.775Z,0.00
2023-05-14T01:10:00.730Z,0.00
2023-05-14T01:11:00.766Z,0.00
2023-05-14T01:12:00.735Z,0.00
2023-05-14T01:13:00.680Z,0.00
2023-05-14T01:14:00.670Z,0.00
2023-05-14T01:15:00.699Z,0.00
2023-05-14T01:16:00.753Z,0.00
2023-05-14T01:17:00.703Z,0.00
2023-05-14T01:18:00.640Z,0.00
2023-05-14T01:19:00.745Z,0.00
2023-05-14T01:20:00.669Z,0.00
2023-05-14T01:21:00.633Z,0.00
2023-05-14T01:22:00.623Z,0.00
2023-05-14T01:23:00.605Z,0.00
2023-05-14T01:24:00.643Z,0.00
2023-05-14T01:25:00.656Z,0.00
2023-05-14T01:26:00.568Z,0.00
2023-05-14T01:27:00.692Z,0.00
2023-05-14T01:28:00.590Z,0.00
2023-05-14T01:29:00.548Z,0.00
2023-05-14T01:30:00.614Z,0.00
2023-05-14T01:31:00.505Z,0.00
2023-05-14T01:32:00.567Z,0.00
2023-05-14T01:33:00.699Z,0.00
2023-05-14T01:34:00.556Z,0.00
2023-05-14T01:35:00.467Z,0.00
2023-05-14T01:36:00.464Z,0.00
2023-05-14T01:37:00.490Z,0.00
2023-05-14T01:38:00.489Z,0.00
2023-05-14T01:39:00.434Z,0.00
2023-05-14T01:40:00.437Z,0.00
2023-05-14T01:41:00.404Z,0.00
2023-05-14T01:42:00.390Z,0.00
2023-05-14T01:43:00.485Z,0.00
2023-05-14T01:44:00.438Z,0.00
2023-05-14T01:45:00.360Z,0.00
2023-05-14T01:46:00.445Z,0.00
2023-05-14T01:47:00.322Z,0.00
2023-05-14T01:48:00.408Z,0.00
2023-05-14T01:49:00.310Z,0.00
2023-05-14T01:50:00.317Z,0.00
2023-05-14T01:51:00.361Z,0.00
2023-05-14T01:52:00.267Z,0.00
2023-05-14T01:53:00.263Z,0.00
2023-05-14T01:54:00.372Z,0.00
2023-05-14T01:55:00.248Z,0.00
2023-05-14T01:56:00.274Z,0.00
2023-05-14T01:57:00.312Z,0.00
2023-05-14T01:58:00.223Z,0.00
2023-05-14T01:59:00.269Z,0.00
2023-05-14T02:00:00.260Z,0.00
2023-05-14T02:01:00.296Z,0.00
2023-05-14T02:02:00.235Z,0.00
2023-05-14T02:03:00.267Z,0.00
2023-05-14T02:04:00.297Z,0.00
2023-05-14T02:05:00.185Z,0.00
2023-05-14T02:06:00.148Z,0.00
2023-05-14T02:07:00.142Z,0.00
2023-05-14T02:08:00.130Z,0.00
2023-05-14T02:09:00.169Z,0.00
2023-05-14T02:10:00.137Z,0.00
2023-05-14T02:11:00.103Z,0.00
2023-05-14T02:12:00.160Z,0.00
2023-05-14T02:13:00.110Z,0.00
2023-05-14T02:14:00.166Z,0.00
2023-05-14T02:15:00.054Z,0.00
2023-05-14T02:16:00.055Z,0.00
2023-05-14T02:17:00.146Z,0.00
2023-05-14T02:18:00.015Z,0.00
2023-05-14T02:19:00.213Z,0.00
2023-05-14T02:20:00.042Z,0.00
2023-05-14T02:20:59.969Z,0.00
2023-05-14T02:22:00.012Z,0.00
2023-05-14T02:22:59.956Z,0.00
2023-05-14T02:23:59.964Z,0.00
2023-05-14T02:24:59.959Z,0.00
2023-05-14T02:25:59.963Z,0.00
2023-05-14T02:27:00.002Z,0.00
2023-05-14T02:27:59.901Z,0.00
2023-05-14T02:28:59.898Z,0.00
2023-05-14T02:29:59.900Z,0.00
2023-05-14T02:30:59.946Z,0.00
2023-05-14T02:31:59.900Z,0.00
2023-05-14T02:33:00.040Z,0.00
2023-05-14T02:33:59.853Z,0.00
2023-05-14T02:34:59.986Z,0.00
2023-05-14T02:35:59.838Z,0.00
2023-05-14T02:36:59.841Z,0.00
2023-05-14T02:37:59.895Z,0.00
2023-05-14T02:38:59.777Z,0.00
2023-05-14T02:39:59.864Z,0.00
2023-05-14T02:40:59.773Z,0.00
2023-05-14T02:41:59.774Z,0.00
2023-05-14T02:42:59.770Z,0.00
2023-05-14T02:43:59.778Z,0.00
2023-05-14T02:44:59.760Z,0.00
2023-05-14T02:45:59.758Z,0.00
2023-05-14T02:46:59.773Z,0.00
2023-05-14T02:47:59.725Z,0.00
2023-05-14T02:48:59.729Z,0.00
2023-05-14T02:49:59.728Z,0.00
2023-05-14T02:50:59.705Z,0.00
2023-05-14T02:51:59.741Z,0.00
2023-05-14T02:52:59.694Z,0.00
2023-05-14T02:53:59.647Z,0.00
2023-05-14T02:54:59.628Z,0.00
2023-05-14T02:55:59.640Z,0.00
2023-05-14T02:56:59.606Z,0.00
2023-05-14T02:57:59.632Z,0.00
2023-05-14T02:58:59.594Z,0.00
2023-05-14T02:59:59.554Z,1.00
2023-05-14T03:00:59.622Z,0.00
2023-05-14T03:01:59.635Z,0.00
2023-05-14T03:02:59.576Z,0.00
2023-05-14T03:03:59.547Z,0.00
2023-05-14T03:04:59.534Z,0.00
2023-05-14T03:05:59.557Z,0.00
2023-05-14T03:06:59.526Z,0.00
2023-05-14T03:07:59.529Z,0.00
2023-05-14T03:08:59.459Z,1.00
2023-05-14T03:09:59.434Z,1.00
2023-05-14T03:10:59.417Z,1.00
2023-05-14T03:11:59.388Z,1.00
2023-05-14T03:12:59.461Z,0.00
2023-05-14T03:13:59.469Z,0.00
2023-05-14T03:14:59.404Z,0.00
2023-05-14T03:15:59.496Z,0.00
2023-05-14T03:16:59.452Z,1.00
2023-05-14T03:17:59.445Z,1.00
2023-05-14T03:18:59.534Z,0.00
2023-05-14T03:19:59.401Z,2.00
2023-05-14T03:20:59.323Z,1.00
2023-05-14T03:21:59.287Z,2.00
2023-05-14T03:22:59.262Z,5.00
2023-05-14T03:23:59.333Z,4.00
2023-05-14T03:24:59.276Z,3.00
2023-05-14T03:25:59.279Z,5.00
2023-05-14T03:26:59.271Z,2.00
2023-05-14T03:27:59.489Z,2.00
2023-05-14T03:28:59.293Z,2.00
2023-05-14T03:29:59.238Z,3.00
2023-05-14T03:30:59.320Z,5.00
2023-05-14T03:31:59.197Z,4.00
2023-05-14T03:32:59.219Z,6.00
2023-05-14T03:33:59.270Z,8.00
2023-05-14T03:34:59.187Z,9.00
2023-05-14T03:35:59.216Z,9.00
2023-05-14T03:36:59.132Z,10.00
2023-05-14T03:37:59.193Z,14.00
2023-05-14T03:38:59.150Z,18.00
2023-05-14T03:39:59.115Z,19.00
2023-05-14T03:40:59.177Z,20.00
2023-05-14T03:41:59.098Z,19.00
2023-05-14T03:42:59.138Z,23.00
2023-05-14T03:43:59.127Z,20.00
2023-05-14T03:44:59.080Z,31.00
2023-05-14T03:45:59.196Z,33.00
2023-05-14T03:46:59.070Z,37.00
2023-05-14T03:47:59.199Z,42.00
2023-05-14T03:48:59.140Z,45.00
2023-05-14T03:49:59.074Z,47.00
2023-05-14T03:50:59.026Z,49.00
2023-05-14T03:51:58.998Z,52.00
2023-05-14T03:52:58.962Z,52.00
2023-05-14T03:53:59.042Z,57.00
2023-05-14T03:54:58.967Z,57.00
2023-05-14T03:55:58.942Z,58.00
2023-05-14T03:56:58.946Z,62.00
2023-05-14T03:57:58.922Z,68.00
2023-05-14T03:58:58.975Z,70.00
2023-05-14T03:59:58.913Z,77.00
2023-05-14T04:00:58.926Z,82.00
2023-05-14T04:01:58.939Z,95.00
2023-05-14T04:02:58.990Z,103.00
2023-05-14T04:03:58.963Z,115.00
2023-05-14T04:04:58.905Z,126.00
2023-05-14T04:05:58.880Z,137.00
2023-05-14T04:06:58.834Z,145.00
2023-05-14T04:07:58.833Z,162.00
2023-05-14T04:08:58.849Z,167.00
2023-05-14T04:09:58.878Z,177.00
2023-05-14T04:10:58.879Z,188.00
2023-05-14T04:11:58.817Z,197.00
2023-05-14T04:12:58.797Z,208.00
2023-05-14T04:13:58.794Z,222.00
2023-05-14T04:14:58.904Z,232.00
2023-05-14T04:15:58.792Z,240.00
2023-05-14T04:17:00.261Z,251.00
2023-05-14T04:17:58.791Z,257.00
2023-05-14T04:18:58.798Z,266.00
2023-05-14T04:19:58.778Z,277.00
2023-05-14T04:20:58.711Z,287.00
2023-05-14T04:21:58.661Z,295.00
2023-05-14T04:22:58.659Z,302.00
2023-05-14T04:23:58.703Z,310.00
2023-05-14T04:24:58.641Z,303.00
2023-05-14T04:25:58.668Z,323.00
2023-05-14T04:26:58.631Z,342.00
2023-05-14T04:27:58.626Z,354.00
2023-05-14T04:28:58.625Z,378.00
2023-05-14T04:29:58.621Z,397.00
2023-05-14T04:30:58.572Z,413.00
2023-05-14T04:31:58.696Z,422.00
2023-05-14T04:32:58.662Z,435.00
2023-05-14T04:33:58.634Z,436.00
2023-05-14T04:34:58.563Z,447.00
2023-05-14T04:35:58.547Z,459.00
2023-05-14T04:36:58.544Z,474.00
2023-05-14T04:37:58.664Z,487.00
2023-05-14T04:38:58.512Z,495.00
2023-05-14T04:39:58.482Z,504.00
2023-05-14T04:40:58.531Z,521.00
2023-05-14T04:41:58.482Z,531.00
2023-05-14T04:42:58.550Z,541.00
2023-05-14T04:43:58.471Z,552.00
2023-05-14T04:44:58.496Z,561.00
2023-05-14T04:45:58.477Z,572.00
2023-05-14T04:46:58.415Z,590.00
2023-05-14T04:47:58.454Z,604.00
2023-05-14T04:48:58.457Z,618.00
2023-05-14T04:49:58.358Z,632.00
2023-05-14T04:50:58.403Z,643.00
2023-05-14T04:51:58.346Z,648.00
2023-05-14T04:52:58.371Z,656.00
2023-05-14T04:53:58.473Z,657.00
2023-05-14T04:54:58.346Z,675.00
2023-05-14T04:55:58.386Z,693.00
2023-05-14T04:56:58.356Z,662.00
2023-05-14T04:57:58.316Z,716.00
2023-05-14T04:58:58.283Z,758.00
2023-05-14T04:59:58.315Z,733.00
2023-05-14T05:00:58.340Z,724.00
2023-05-14T05:01:58.257Z,729.00
2023-05-14T05:02:58.344Z,739.00
2023-05-14T05:03:58.283Z,692.00
2023-05-14T05:04:58.225Z,645.00
2023-05-14T05:05:58.234Z,641.00
2023-05-14T05:06:58.240Z,649.00
2023-05-14T05:07:58.227Z,649.00
2023-05-14T05:08:59.544Z,673.00
2023-05-14T05:09:58.191Z,717.00
2023-05-14T05:10:58.170Z,765.00
2023-05-14T05:11:58.247Z,855.00
2023-05-14T05:12:58.137Z,935.00
2023-05-14T05:13:58.115Z,913.00
2023-05-14T05:14:58.121Z,887.00
2023-05-14T05:15:58.180Z,907.00
2023-05-14T05:16:58.123Z,947.00
2023-05-14T05:17:58.187Z,1026.00
2023-05-14T05:18:58.127Z,1059.00
2023-05-14T05:19:58.135Z,1075.00
2023-05-14T05:20:58.047Z,1175.00
2023-05-14T05:21:58.072Z,1252.00
2023-05-14T05:22:58.332Z,1146.00
2023-05-14T05:23:58.040Z,1182.00
2023-05-14T05:24:58.079Z,1257.00
2023-05-14T05:25:58.024Z,1214.00
2023-05-14T05:26:58.085Z,1288.00
2023-05-14T05:27:57.997Z,1307.00
2023-05-14T05:28:57.990Z,1366.00
2023-05-14T05:29:58.060Z,1320.00
2023-05-14T05:30:58.017Z,1261.00
2023-05-14T05:31:57.959Z,1065.00
2023-05-14T05:32:58.083Z,1796.00
2023-05-14T05:33:57.935Z,1849.00
2023-05-14T05:34:57.919Z,1319.00
2023-05-14T05:35:57.921Z,1606.00
2023-05-14T05:36:57.899Z,1386.00
2023-05-14T05:38:00.499Z,1132.00
2023-05-14T05:38:57.896Z,1007.00
2023-05-14T05:39:57.901Z,1085.00
2023-05-14T05:40:57.897Z,893.00
2023-05-14T05:41:57.865Z,599.00
2023-05-14T05:42:57.923Z,1341.00
2023-05-14T05:43:57.823Z,1573.00
2023-05-14T05:44:57.855Z,1109.00
2023-05-14T05:45:57.814Z,1150.00
2023-05-14T05:46:57.951Z,1615.00
2023-05-14T05:47:57.871Z,1334.00
2023-05-14T05:48:57.891Z,741.00
2023-05-14T05:49:57.814Z,2256.00
2023-05-14T05:50:57.762Z,1996.00
2023-05-14T05:51:57.769Z,1351.00
2023-05-14T05:52:57.763Z,3415.00
2023-05-14T05:53:57.791Z,6249.00
2023-05-14T05:54:57.765Z,2921.00
2023-05-14T05:55:57.704Z,2775.00
2023-05-14T05:56:57.708Z,1872.00
2023-05-14T05:57:57.687Z,5431.00
2023-05-14T05:58:57.991Z,1321.00
2023-05-14T05:59:57.708Z,2466.00
2023-05-14T06:00:57.936Z,7288.00
2023-05-14T06:01:57.765Z,8406.00
2023-05-14T06:02:57.770Z,11254.00
2023-05-14T06:03:57.709Z,8220.00
2023-05-14T06:04:57.772Z,3948.00
2023-05-14T06:05:57.632Z,1462.00
2023-05-14T06:06:57.680Z,1521.00
2023-05-14T06:07:57.579Z,2706.00
2023-05-14T06:08:57.772Z,10567.00
2023-05-14T06:09:57.805Z,3922.00
2023-05-14T06:10:57.536Z,8140.00
2023-05-14T06:11:57.566Z,8170.00
2023-05-14T06:12:57.554Z,2002.00
2023-05-14T06:13:57.597Z,5575.00
2023-05-14T06:14:57.489Z,4189.00
2023-05-14T06:15:57.505Z,1111.00
2023-05-14T06:16:57.559Z,2284.00
2023-05-14T06:17:57.606Z,4681.00
2023-05-14T06:18:57.499Z,3976.00
2023-05-14T06:19:57.466Z,1901.00
2023-05-14T06:20:57.428Z,7894.00
2023-05-14T06:21:57.482Z,5515.00
2023-05-14T06:22:57.420Z,1760.00
2023-05-14T06:23:57.400Z,9408.00
2023-05-14T06:24:57.458Z,3129.00
2023-05-14T06:25:57.456Z,7136.00
2023-05-14T06:26:58.197Z,2940.00
2023-05-14T06:27:57.382Z,3115.00
2023-05-14T06:28:58.188Z,1769.00
2023-05-14T06:29:57.380Z,1336.00
2023-05-14T06:30:57.328Z,2646.00
2023-05-14T06:31:57.403Z,1484.00
2023-05-14T06:32:57.335Z,1405.00
2023-05-14T06:33:57.327Z,2073.00
2023-05-14T06:34:57.348Z,3547.00
2023-05-14T06:35:57.376Z,2338.00
2023-05-14T06:36:57.441Z,1367.00
2023-05-14T06:37:57.258Z,4669.00
2023-05-14T06:38:57.271Z,913.00
2023-05-14T06:39:57.985Z,1334.00
2023-05-14T06:40:57.379Z,5138.00
2023-05-14T06:41:57.211Z,1909.00
2023-05-14T06:42:57.347Z,1581.00
2023-05-14T06:43:57.188Z,1861.00
2023-05-14T06:44:57.194Z,1315.00
2023-05-14T06:45:57.227Z,1292.00
2023-05-14T06:46:57.215Z,1215.00
2023-05-14T06:47:57.267Z,1303.00
2023-05-14T06:48:59.334Z,1548.00
2023-05-14T06:49:57.107Z,1867.00
2023-05-14T06:50:57.153Z,2123.00
2023-05-14T06:51:57.094Z,1799.00
2023-05-14T06:52:57.305Z,1644.00
2023-05-14T06:53:57.076Z,2306.00
2023-05-14T06:54:57.078Z,2292.00
2023-05-14T06:55:57.094Z,2273.00
2023-05-14T06:56:57.061Z,2174.00
2023-05-14T06:57:57.074Z,2165.00
2023-05-14T06:58:57.059Z,1741.00
2023-05-14T06:59:57.017Z,1251.00
2023-05-14T07:00:57.043Z,1864.00
2023-05-14T07:01:57.066Z,1722.00
2023-05-14T07:02:57.028Z,1864.00
2023-05-14T07:03:56.984Z,1952.00
2023-05-14T07:04:57.038Z,1861.00
2023-05-14T07:05:56.960Z,1662.00
2023-05-14T07:06:56.970Z,1700.00
2023-05-14T07:07:56.962Z,1638.00
2023-05-14T07:08:56.937Z,1605.00
2023-05-14T07:09:56.931Z,1674.00
2023-05-14T07:10:56.927Z,1853.00
2023-05-14T07:11:56.941Z,1906.00
2023-05-14T07:12:56.970Z,1987.00
2023-05-14T07:13:56.903Z,1700.00
2023-05-14T07:14:56.850Z,2647.00
2023-05-14T07:15:56.899Z,1914.00
2023-05-14T07:16:56.898Z,2292.00
2023-05-14T07:17:56.966Z,2008.00
2023-05-14T07:18:56.883Z,1980.00
2023-05-14T07:19:56.802Z,2132.00
2023-05-14T07:20:56.832Z,1860.00
2023-05-14T07:21:56.793Z,2540.00
2023-05-14T07:22:56.763Z,2005.00
2023-05-14T07:23:56.812Z,1936.00
2023-05-14T07:24:56.750Z,2411.00
2023-05-14T07:25:56.946Z,2131.00
2023-05-14T07:26:56.733Z,1985.00
2023-05-14T07:27:56.746Z,2424.00
2023-05-14T07:28:56.723Z,2292.00
2023-05-14T07:29:57.004Z,2185.00
2023-05-14T07:30:56.744Z,2350.00
2023-05-14T07:31:56.719Z,2190.00
2023-05-14T07:32:56.709Z,2231.00
2023-05-14T07:33:56.678Z,1894.00
2023-05-14T07:34:56.648Z,2937.00
2023-05-14T07:35:56.652Z,1463.00
2023-05-14T07:36:56.700Z,3262.00
2023-05-14T07:37:56.657Z,2612.00
2023-05-14T07:38:56.687Z,1681.00
2023-05-14T07:39:56.597Z,2300.00
2023-05-14T07:40:56.593Z,2512.00
2023-05-14T07:41:56.607Z,3155.00
2023-05-14T07:42:56.594Z,1975.00
2023-05-14T07:43:56.671Z,1316.00
2023-05-14T07:44:56.545Z,3295.00
2023-05-14T07:45:56.666Z,2497.00
2023-05-14T07:46:56.604Z,2482.00
2023-05-14T07:47:56.686Z,2014.00
2023-05-14T07:48:56.507Z,2436.00
2023-05-14T07:49:56.512Z,1686.00
2023-05-14T07:50:56.597Z,1682.00
2023-05-14T07:51:56.515Z,3019.00
2023-05-14T07:52:56.480Z,2396.00
2023-05-14T07:53:56.447Z,2691.00
2023-05-14T07:54:57.139Z,1183.00
2023-05-14T07:55:56.503Z,1992.00
2023-05-14T07:56:57.061Z,3366.00
2023-05-14T07:57:56.427Z,1842.00
2023-05-14T07:58:56.410Z,841.00
2023-05-14T07:59:56.404Z,3511.00
2023-05-14T08:00:56.476Z,1678.00
2023-05-14T08:01:56.500Z,1725.00
2023-05-14T08:02:56.547Z,2073.00
2023-05-14T08:03:56.449Z,815.00
2023-05-14T08:04:56.420Z,2428.00
2023-05-14T08:05:56.372Z,2082.00
2023-05-14T08:06:56.814Z,1915.00
2023-05-14T08:07:56.337Z,2982.00
2023-05-14T08:08:56.298Z,945.00
2023-05-14T08:09:56.342Z,759.00
2023-05-14T08:10:56.338Z,1782.00
2023-05-14T08:11:56.265Z,1654.00
2023-05-14T08:12:56.320Z,1678.00
2023-05-14T08:13:56.279Z,1704.00
2023-05-14T08:14:56.262Z,1697.00
2023-05-14T08:15:56.283Z,1887.00
2023-05-14T08:16:56.353Z,1810.00
2023-05-14T08:17:56.258Z,1831.00
2023-05-14T08:18:56.285Z,1811.00
2023-05-14T08:19:56.197Z,1810.00
2023-05-14T08:20:56.224Z,1785.00
2023-05-14T08:21:56.174Z,1817.00
2023-05-14T08:22:56.132Z,1697.00
2023-05-14T08:23:56.212Z,1725.00
2023-05-14T08:24:56.224Z,1708.00
2023-05-14T08:25:56.124Z,1758.00
2023-05-14T08:26:56.106Z,1747.00
2023-05-14T08:27:56.143Z,1864.00
2023-05-14T08:28:56.205Z,1902.00
2023-05-14T08:29:56.086Z,1895.00
2023-05-14T08:30:56.088Z,1853.00
2023-05-14T08:31:56.036Z,1798.00
2023-05-14T08:32:56.113Z,1727.00
2023-05-14T08:33:56.095Z,1700.00
2023-05-14T08:34:56.075Z,1851.00
2023-05-14T08:35:56.129Z,1757.00
2023-05-14T08:36:56.032Z,1829.00
2023-05-14T08:37:56.009Z,1793.00
2023-05-14T08:38:55.997Z,1975.00
2023-05-14T08:39:55.986Z,2124.00
2023-05-14T08:40:56.008Z,1847.00
2023-05-14T08:41:55.972Z,1950.00
2023-05-14T08:42:55.991Z,2945.00
2023-05-14T08:43:55.945Z,2282.00
2023-05-14T08:44:55.971Z,523.00
2023-05-14T08:45:55.955Z,1653.00
2023-05-14T08:46:55.929Z,1602.00
2023-05-14T08:47:56.040Z,1623.00
2023-05-14T08:48:55.971Z,1566.00
2023-05-14T08:49:55.881Z,1633.00
2023-05-14T08:50:55.917Z,1670.00
2023-05-14T08:51:55.865Z,1612.00
2023-05-14T08:52:55.866Z,1703.00
2023-05-14T08:53:55.858Z,1612.00
2023-05-14T08:54:55.814Z,1668.00
2023-05-14T08:55:55.789Z,3035.00
2023-05-14T08:56:55.901Z,2299.00
2023-05-14T08:57:55.840Z,1305.00
2023-05-14T08:58:55.799Z,426.00
2023-05-14T08:59:55.822Z,677.00
2023-05-14T09:00:55.753Z,1462.00
2023-05-14T09:01:55.784Z,1758.00
2023-05-14T09:02:55.794Z,1240.00
2023-05-14T09:03:55.790Z,1614.00
2023-05-14T09:04:55.706Z,1609.00
2023-05-14T09:05:56.453Z,1632.00
2023-05-14T09:06:55.708Z,1533.00
2023-05-14T09:07:55.716Z,1658.00
2023-05-14T09:08:55.671Z,1727.00
2023-05-14T09:09:55.684Z,1872.00
2023-05-14T09:10:55.687Z,1928.00
2023-05-14T09:11:55.715Z,1817.00
2023-05-14T09:12:55.656Z,2160.00
2023-05-14T09:13:55.610Z,1776.00
2023-05-14T09:14:55.667Z,1855.00
2023-05-14T09:15:55.640Z,1887.00
2023-05-14T09:16:55.593Z,2070.00
2023-05-14T09:17:55.723Z,3619.00
2023-05-14T09:18:55.604Z,1044.00
2023-05-14T09:19:55.672Z,1845.00
2023-05-14T09:20:55.663Z,1906.00
2023-05-14T09:21:55.596Z,4164.00
2023-05-14T09:22:55.590Z,2899.00
2023-05-14T09:23:55.723Z,928.00
2023-05-14T09:24:55.578Z,4283.00
2023-05-14T09:25:55.484Z,1567.00
2023-05-14T09:26:55.590Z,1187.00
2023-05-14T09:27:58.003Z,1035.00
2023-05-14T09:28:55.512Z,1639.00
2023-05-14T09:29:55.453Z,4755.00
2023-05-14T09:30:55.518Z,945.00
2023-05-14T09:31:55.461Z,2295.00
2023-05-14T09:32:55.546Z,1063.00
2023-05-14T09:33:55.482Z,4696.00
2023-05-14T09:34:55.413Z,2040.00
2023-05-14T09:35:56.993Z,932.00
2023-05-14T09:36:55.395Z,4523.00
2023-05-14T09:37:55.418Z,1598.00
2023-05-14T09:38:55.351Z,2141.00
2023-05-14T09:39:55.346Z,1770.00
2023-05-14T09:40:55.441Z,1732.00
2023-05-14T09:41:55.332Z,1666.00
2023-05-14T09:42:55.363Z,1048.00
2023-05-14T09:43:55.302Z,1666.00
2023-05-14T09:44:55.285Z,2302.00
2023-05-14T09:45:55.331Z,1617.00
2023-05-14T09:46:55.287Z,1551.00
2023-05-14T09:47:55.504Z,1282.00
2023-05-14T09:48:55.274Z,2030.00
2023-05-14T09:49:55.264Z,1668.00
2023-05-14T09:50:55.277Z,1454.00
2023-05-14T09:51:55.239Z,1508.00
2023-05-14T09:52:55.211Z,1382.00
2023-05-14T09:53:55.246Z,801.00
2023-05-14T09:54:55.215Z,2900.00
2023-05-14T09:55:55.221Z,1276.00
2023-05-14T09:56:55.900Z,1642.00
2023-05-14T09:57:55.164Z,2012.00
2023-05-14T09:58:55.160Z,1660.00
2023-05-14T09:59:55.167Z,1790.00
2023-05-14T10:00:55.176Z,1787.00
2023-05-14T10:01:55.150Z,2112.00
2023-05-14T10:02:55.182Z,1449.00
2023-05-14T10:03:55.135Z,2009.00
2023-05-14T10:04:55.118Z,3484.00
2023-05-14T10:05:55.108Z,904.00
2023-05-14T10:06:55.059Z,2058.00
2023-05-14T10:07:55.081Z,1921.00
2023-05-14T10:08:55.054Z,2022.00
2023-05-14T10:09:56.279Z,2006.00
2023-05-14T10:10:55.033Z,2066.00
2023-05-14T10:11:55.021Z,2077.00
2023-05-14T10:12:55.016Z,2163.00
2023-05-14T10:13:55.032Z,2001.00
2023-05-14T10:14:55.077Z,2136.00
2023-05-14T10:15:54.969Z,2203.00
2023-05-14T10:16:55.134Z,3278.00
2023-05-14T10:17:55.003Z,1731.00
2023-05-14T10:18:57.170Z,3956.00
2023-05-14T10:19:54.951Z,1679.00
2023-05-14T10:20:54.953Z,1489.00
2023-05-14T10:21:54.924Z,1044.00
2023-05-14T10:22:54.979Z,4034.00
2023-05-14T10:23:54.940Z,2092.00
2023-05-14T10:24:54.940Z,2140.00
2023-05-14T10:25:54.880Z,1968.00
2023-05-14T10:26:54.905Z,2077.00
2023-05-14T10:27:54.936Z,1881.00
2023-05-14T10:28:54.922Z,1871.00
2023-05-14T10:29:54.980Z,1743.00
2023-05-14T10:30:54.905Z,2007.00
2023-05-14T10:31:54.939Z,1798.00
2023-05-14T10:32:54.886Z,1712.00
2023-05-14T10:33:54.798Z,1649.00
2023-05-14T10:34:54.784Z,1640.00
2023-05-14T10:35:54.795Z,1574.00
2023-05-14T10:36:54.824Z,1633.00
2023-05-14T10:37:54.792Z,1627.00
2023-05-14T10:38:54.734Z,1727.00
2023-05-14T10:39:54.753Z,1847.00
2023-05-14T10:40:54.757Z,1777.00
2023-05-14T10:41:54.729Z,1777.00
2023-05-14T10:42:54.792Z,1741.00
2023-05-14T10:43:54.772Z,1680.00
2023-05-14T10:44:54.682Z,1645.00
2023-05-14T10:45:54.694Z,1576.00
2023-05-14T10:46:54.742Z,1515.00
2023-05-14T10:47:54.778Z,1544.00
2023-05-14T10:48:54.752Z,1569.00
2023-05-14T10:49:54.664Z,1657.00
2023-05-14T10:50:54.765Z,1699.00
2023-05-14T10:51:54.631Z,1682.00
2023-05-14T10:52:54.690Z,1665.00
2023-05-14T10:53:54.590Z,1658.00
2023-05-14T10:54:54.701Z,1649.00
2023-05-14T10:55:54.598Z,1701.00
2023-05-14T10:56:54.579Z,1741.00
2023-05-14T10:57:54.817Z,1660.00
2023-05-14T10:58:54.532Z,1597.00
2023-05-14T10:59:54.564Z,1633.00
2023-05-14T11:00:54.548Z,1621.00
2023-05-14T11:01:54.611Z,1623.00
2023-05-14T11:02:54.553Z,1628.00
2023-05-14T11:03:54.524Z,1645.00
2023-05-14T11:04:54.468Z,1609.00
2023-05-14T11:05:54.498Z,1527.00
2023-05-14T11:06:54.486Z,1583.00
2023-05-14T11:07:54.483Z,1576.00
2023-05-14T11:08:54.434Z,1651.00
2023-05-14T11:09:54.418Z,2131.00
2023-05-14T11:10:54.448Z,1934.00
2023-05-14T11:11:54.442Z,1884.00
2023-05-14T11:12:54.844Z,1433.00
2023-05-14T11:13:54.396Z,1808.00
2023-05-14T11:14:54.373Z,1159.00
2023-05-14T11:15:54.379Z,3533.00
2023-05-14T11:16:54.419Z,1474.00
2023-05-14T11:17:54.461Z,2789.00
2023-05-14T11:18:54.511Z,1898.00
2023-05-14T11:19:54.554Z,1909.00
2023-05-14T11:20:54.339Z,2172.00
2023-05-14T11:21:54.702Z,1952.00
2023-05-14T11:22:54.309Z,1840.00
2023-05-14T11:23:54.322Z,1848.00
2023-05-14T11:24:54.283Z,1879.00
2023-05-14T11:25:54.352Z,1840.00
2023-05-14T11:26:54.355Z,1803.00
2023-05-14T11:27:54.392Z,1800.00
2023-05-14T11:28:54.249Z,1810.00
2023-05-14T11:29:54.376Z,1778.00
2023-05-14T11:30:54.240Z,1788.00
2023-05-14T11:31:54.300Z,1811.00
2023-05-14T11:32:54.330Z,1820.00
2023-05-14T11:33:54.299Z,1810.00
2023-05-14T11:34:54.193Z,1727.00
2023-05-14T11:35:54.212Z,1966.00
2023-05-14T11:36:54.154Z,1827.00
2023-05-14T11:37:54.214Z,1408.00
2023-05-14T11:38:54.196Z,2137.00
2023-05-14T11:39:54.287Z,1827.00
2023-05-14T11:40:54.145Z,1850.00
2023-05-14T11:41:54.139Z,1887.00
2023-05-14T11:42:54.157Z,1882.00
2023-05-14T11:43:54.218Z,1838.00
2023-05-14T11:44:54.243Z,1781.00
2023-05-14T11:45:54.191Z,1758.00
2023-05-14T11:46:54.075Z,1792.00
2023-05-14T11:47:54.227Z,1879.00
2023-05-14T11:48:54.025Z,1895.00
2023-05-14T11:49:54.076Z,1864.00
2023-05-14T11:50:54.014Z,1830.00
2023-05-14T11:51:54.052Z,1827.00
2023-05-14T11:52:54.163Z,1861.00
2023-05-14T11:53:54.109Z,1815.00
2023-05-14T11:54:54.072Z,1863.00
2023-05-14T11:55:54.014Z,1940.00
2023-05-14T11:56:54.016Z,1971.00
2023-05-14T11:57:53.958Z,1860.00
2023-05-14T11:58:53.945Z,1824.00
2023-05-14T11:59:53.938Z,1700.00
2023-05-14T12:00:53.962Z,1776.00
2023-05-14T12:01:53.915Z,1914.00
2023-05-14T12:02:54.079Z,1941.00
2023-05-14T12:03:53.926Z,1934.00
2023-05-14T12:04:54.346Z,1933.00
2023-05-14T12:05:53.865Z,1897.00
2023-05-14T12:06:53.908Z,1879.00
2023-05-14T12:07:53.828Z,1803.00
2023-05-14T12:08:53.835Z,1808.00
2023-05-14T12:09:53.977Z,1842.00
2023-05-14T12:10:53.796Z,1765.00
2023-05-14T12:11:53.832Z,1726.00
2023-05-14T12:12:53.808Z,1694.00
2023-05-14T12:13:53.836Z,1702.00
2023-05-14T12:14:53.806Z,1399.00
2023-05-14T12:15:53.818Z,1236.00
2023-05-14T12:16:53.752Z,1278.00
2023-05-14T12:17:53.921Z,2788.00
2023-05-14T12:18:53.760Z,2393.00
2023-05-14T12:19:53.734Z,1940.00
2023-05-14T12:20:53.702Z,1867.00
2023-05-14T12:21:53.724Z,1807.00
2023-05-14T12:22:53.670Z,1919.00
2023-05-14T12:23:53.705Z,1695.00
2023-05-14T12:24:53.666Z,1530.00
2023-05-14T12:25:53.757Z,891.00
2023-05-14T12:26:53.664Z,1452.00
2023-05-14T12:27:53.652Z,964.00
2023-05-14T12:28:53.675Z,2978.00